Apex, NC (27502)

5:45 AM EDT on August 31, 2015 (GMT -0400)
Surrey Meadows | | Change Station
CLOSE
Current Station
Personal Weather Station
Location: APEX, NC
Elevation: 476 ft
Nearby Weather Stations

Elev 476 ft 35.73 °N, 78.83 °W | Updated 5 minutes ago

Rain
Rain
68.9 °F
Feels Like 68.9 °F
N
0.0
Wind Variable Wind from NW

Today
High -- | Low -- °F
--% Chance of Precip.
Yesterday
High -- | Low -- °F
Precip. -- in
6:46 AM 7:44 PM
Waning Gibbous, 96% visible
Pressure 30.10 in
Visibility 7.0 miles
Clouds Few 1800 ft
Mostly Cloudy 4500 ft
Overcast 8000 ft
Dew Point 65 °F
Humidity 88%
Rainfall 0.08 in
Snow Depth Not available.
UV 0.0 out of 12
Pollen 7.80 out of 12
Air Quality Not available.
Flu Activity Not available.
METAR KRDU 310851Z 00000KT 7SM -RA FEW018 BKN045 OVC080 21/19 A3012 RMK AO2 RAB10E27B44 SLP193 P0010 60010 T02060194 55004
Pressure 30.10 in
Visibility 7.0 miles
Clouds Few 1800 ft
Mostly Cloudy 4500 ft
Overcast 8000 ft
Dew Point 65 °F
Humidity 88%
Rainfall 0.08 in
Snow Depth Not available.
UV 0.0 out of 12
Pollen 7.80 out of 12
Air Quality Not available.
Flu Activity Not available.
METAR KRDU 310851Z 00000KT 7SM -RA FEW018 BKN045 OVC080 21/19 A3012 RMK AO2 RAB10E27B44 SLP193 P0010 60010 T02060194 55004

10-Day Weather Forecast

×

Almanac

Astronomy

Aug. 31, 2015 Rise Set
Actual Time
Civil Twilight
Nautical Twilight
Astronomical Twilight
Moon
Length of Visible Light
Length of Day
Tomorrow will be .
, % of the Moon is Illuminated

Today's Extremes

State Highs State Lows

Community

WunderPhotos

Upload Photos

1,851,229 photos uploaded!

WunderBlogs® & News

Nearby

Air Quality

  Air Quality AQ Index Pollutant
Not available.

Snow Depth

Station Depth Elevation

Earthquake Activity

City Distance Mag. Time & Date
Minimum magnitude displayed is 2.5.

Coastal Water Temperatures

Place Temperature

Stations

Nearby Weather Stations

Station Location Temp. Windchill Dew Point Humidity Wind Precip. Elev Updated Type